KEKN/EKN METAR and TAF weather

Enter ICAO airport designator
Station Type Date Time Source
KEKN METAR 2021/01/20 21:51 UTC NOAA

KEKN 202151Z AUTO 26007KT 10SM OVC037 M01/M09 A3007 RMK AO2 SLP206 T10111094


Station Type Date Time Source
KEKN Decoded METAR 2021/01/20 21:51 UTC NOAA

JENNINGS RANDOLPH FIELD, WV, United States (KEKN) 38-53N 079-51W 603M
Jan 20, 2021 - 04:51 PM EST / 2021.01.20 2151 UTC
Wind: from the W (260 degrees) at 8 MPH (7 KT):0
Visibility: 10 mile(s):0
Sky conditions: overcast
Temperature: 30.0 F (-1.1 C)
Windchill: 23 F (-5 C):1
Dew Point: 15.1 F (-9.4 C)
Relative Humidity: 53%
Pressure (altimeter): 30.07 in. Hg (1018 hPa)
ob: KEKN 202151Z AUTO 26007KT 10SM OVC037 M01/M09 A3007 RMK AO2 SLP206 T10111094
cycle: 22

Station Type Date Time Source
KEKN TAF 2021/01/20 21:15 UTC NOAA

TAF
AMD KEKN 202112Z 2021/2118 29012G23KT P6SM BKN050
FM202300 25005KT P6SM SCT150
FM211300 23008G20KT P6SM SCT120
FM211500 25010G22KT P6SM SCT030

Example: see airport list